Airfield :
LOGIN :

Register | Disclaimer

   EN    FR    IT 

 










Legend :    VFR   Marginal VFR   IFR   Intensive IFR   Very Intensive IFR
Visi :
Ceiling :
>= 8 km
>= 3000ft
5 to 8 km
1000 to 3000 ft
1500m to 5 km
500 to 1000 ft
800 to 1500m
200 to 500 ft
< 800m
< 200 ft
Symbols :   Thunderstorms  Fog  Heavy snow  Heavy precipitations  Wind > 20 kt
SIGMETs :     Misc.  Thunderstorms  Icing  Turbulence  Mountain Waves  Volcanic Ashes







- Airport Elevation : 665 ft
- IATA code : NOC


EIKN - Connaught / Knock- Ireland West

CURRENT METAR :
  • 170730Z 18011KT 150V220 6000 -RA BKN002 BKN033 13/12 Q1003 TEMPO BECMG 5000

EXPIRED METARs :
  • 170700Z 18011KT 150V220 9999 BKN002 FEW018CB BKN030 13/13 Q1003 TEMPO BECMG 5000
  • 170630Z 18012KT 140V220 9999 BKN003 FEW018CB BKN033 13/12 Q1003 RERA TEMPO BECMG 5000
  • 170600Z 19012KT 9999 SHRA BKN005 SCT018CB BKN033 13/13 Q1003 TEMPO BECMG 5000
  • 170530Z 19010KT 9999 BKN005 FEW018CB BKN033 13/13 Q1003 TEMPO BECMG 5000
  • 170500Z 19010KT 150V220 9999 BKN007 FEW018CB BKN033 13/12 Q1003 BECMG 5000

TAF AMD TAF EIKN
Valid from the 17 at 06:00 until the 18 at 06:00 UTC


170635Z 1706/1806 19010KT 9999 SCT012 BKN020
TEMPO 1706/1709 3000 SHRA BKN002 SCT018CB
BECMG 1708/1711 22012KT
TEMPO 1710/1724 5000 SHRA BKN007 SCT018CB
TEMPO 1800/1806 -SHRA BKN010 SCT018CB
BECMG 1719/1721 29012KT
BECMG 1722/1724 25012KT
No reported NOTAMs for that airfield.



MET'MAP, your aeronautical weather chart ! - Copyright ORBIFLY December 2007 - Disclaimer

ORBIFLY MET'MAP TEAM :

Programming & Development : Alexandra Zaïnal
Concept & Development : Baudouin d'Aumeries
Co-Development & Prog : Marc-Olivier Méhu
Technical & hardware support : Manuel Goepfert

Contact : metmap@orbifly.com




SOURCES & CREDITS :

   NOAA